sensor_id;sensor_type;location;lat;lon;timestamp;temperature;humidity
6752;DHT22;3413;47.680;9.166;2023-09-18T00:04:02;23.60;78.70
6752;DHT22;3413;47.680;9.166;2023-09-18T00:09:05;23.60;78.70
6752;DHT22;3413;47.680;9.166;2023-09-18T00:14:08;23.40;78.80
6752;DHT22;3413;47.680;9.166;2023-09-18T00:19:11;23.40;79.00
6752;DHT22;3413;47.680;9.166;2023-09-18T00:24:13;23.40;79.00
6752;DHT22;3413;47.680;9.166;2023-09-18T00:29:16;23.30;79.20
6752;DHT22;3413;47.680;9.166;2023-09-18T00:34:18;23.30;79.30
6752;DHT22;3413;47.680;9.166;2023-09-18T00:39:20;23.30;79.60
6752;DHT22;3413;47.680;9.166;2023-09-18T00:44:22;23.30;79.60
6752;DHT22;3413;47.680;9.166;2023-09-18T00:49:25;23.20;79.70
6752;DHT22;3413;47.680;9.166;2023-09-18T00:54:27;23.30;79.80
6752;DHT22;3413;47.680;9.166;2023-09-18T00:59:29;23.20;79.90
6752;DHT22;3413;47.680;9.166;2023-09-18T01:04:33;23.30;79.90
6752;DHT22;3413;47.680;9.166;2023-09-18T01:09:35;23.30;79.90
6752;DHT22;3413;47.680;9.166;2023-09-18T01:14:50;23.40;80.00
6752;DHT22;3413;47.680;9.166;2023-09-18T01:19:56;23.50;80.00
6752;DHT22;3413;47.680;9.166;2023-09-18T01:24:58;23.50;80.10
6752;DHT22;3413;47.680;9.166;2023-09-18T01:30:01;23.40;80.00
6752;DHT22;3413;47.680;9.166;2023-09-18T01:35:04;23.50;80.10
6752;DHT22;3413;47.680;9.166;2023-09-18T01:40:10;23.40;80.10
6752;DHT22;3413;47.680;9.166;2023-09-18T01:45:13;23.40;80.00
6752;DHT22;3413;47.680;9.166;2023-09-18T01:50:15;23.30;79.90
6752;DHT22;3413;47.680;9.166;2023-09-18T01:55:17;23.20;80.10
6752;DHT22;3413;47.680;9.166;2023-09-18T02:00:19;23.00;80.30
6752;DHT22;3413;47.680;9.166;2023-09-18T02:05:23;23.00;80.30
6752;DHT22;3413;47.680;9.166;2023-09-18T02:10:26;23.00;80.30
6752;DHT22;3413;47.680;9.166;2023-09-18T02:15:29;23.10;80.20
6752;DHT22;3413;47.680;9.166;2023-09-18T02:20:40;23.00;80.20
6752;DHT22;3413;47.680;9.166;2023-09-18T02:25:42;23.00;80.40
6752;DHT22;3413;47.680;9.166;2023-09-18T02:30:45;23.00;80.30
6752;DHT22;3413;47.680;9.166;2023-09-18T02:35:48;23.10;80.30
6752;DHT22;3413;47.680;9.166;2023-09-18T02:40:53;23.00;80.10
6752;DHT22;3413;47.680;9.166;2023-09-18T02:45:56;22.90;80.40
6752;DHT22;3413;47.680;9.166;2023-09-18T02:51:02;22.80;80.50
6752;DHT22;3413;47.680;9.166;2023-09-18T02:56:04;22.80;80.50
6752;DHT22;3413;47.680;9.166;2023-09-18T03:01:07;22.60;80.50
6752;DHT22;3413;47.680;9.166;2023-09-18T03:06:10;22.60;80.70
6752;DHT22;3413;47.680;9.166;2023-09-18T03:11:13;22.50;80.80
6752;DHT22;3413;47.680;9.166;2023-09-18T03:16:15;22.50;80.80
6752;DHT22;3413;47.680;9.166;2023-09-18T03:21:19;22.60;80.90
6752;DHT22;3413;47.680;9.166;2023-09-18T03:26:20;22.60;80.90
6752;DHT22;3413;47.680;9.166;2023-09-18T03:31:23;22.60;81.00
6752;DHT22;3413;47.680;9.166;2023-09-18T03:36:25;22.60;81.00
6752;DHT22;3413;47.680;9.166;2023-09-18T03:41:27;22.60;81.30
6752;DHT22;3413;47.680;9.166;2023-09-18T03:46:29;22.60;81.30
6752;DHT22;3413;47.680;9.166;2023-09-18T03:51:32;22.60;81.30
6752;DHT22;3413;47.680;9.166;2023-09-18T03:56:34;22.70;81.40
6752;DHT22;3413;47.680;9.166;2023-09-18T04:01:36;22.80;81.50
6752;DHT22;3413;47.680;9.166;2023-09-18T04:06:43;22.80;81.50
6752;DHT22;3413;47.680;9.166;2023-09-18T04:11:47;22.80;81.50
6752;DHT22;3413;47.680;9.166;2023-09-18T04:16:49;22.90;81.60
6752;DHT22;3413;47.680;9.166;2023-09-18T04:21:54;23.00;81.70
6752;DHT22;3413;47.680;9.166;2023-09-18T04:26:56;23.00;81.70
6752;DHT22;3413;47.680;9.166;2023-09-18T04:31:58;23.20;81.60
6752;DHT22;3413;47.680;9.166;2023-09-18T04:37:01;23.30;81.60
6752;DHT22;3413;47.680;9.166;2023-09-18T04:42:10;23.30;81.70
6752;DHT22;3413;47.680;9.166;2023-09-18T04:47:12;23.20;81.60
6752;DHT22;3413;47.680;9.166;2023-09-18T04:52:14;23.10;81.80
6752;DHT22;3413;47.680;9.166;2023-09-18T04:57:17;23.20;81.90
6752;DHT22;3413;47.680;9.166;2023-09-18T05:02:21;23.30;81.80
6752;DHT22;3413;47.680;9.166;2023-09-18T05:07:23;23.20;81.90
6752;DHT22;3413;47.680;9.166;2023-09-18T05:12:25;23.20;81.90
6752;DHT22;3413;47.680;9.166;2023-09-18T05:17:44;23.20;81.90
6752;DHT22;3413;47.680;9.166;2023-09-18T05:22:46;23.20;81.90
6752;DHT22;3413;47.680;9.166;2023-09-18T05:27:52;23.20;81.90
6752;DHT22;3413;47.680;9.166;2023-09-18T05:32:59;23.20;82.10
6752;DHT22;3413;47.680;9.166;2023-09-18T05:38:07;23.10;81.90
6752;DHT22;3413;47.680;9.166;2023-09-18T05:43:10;23.10;82.10
6752;DHT22;3413;47.680;9.166;2023-09-18T05:48:13;23.20;82.00
6752;DHT22;3413;47.680;9.166;2023-09-18T05:53:15;23.20;82.10
6752;DHT22;3413;47.680;9.166;2023-09-18T05:58:17;23.10;82.20
6752;DHT22;3413;47.680;9.166;2023-09-18T06:03:21;23.20;82.20
6752;DHT22;3413;47.680;9.166;2023-09-18T06:08:23;23.30;82.10
6752;DHT22;3413;47.680;9.166;2023-09-18T06:13:28;23.30;82.00
6752;DHT22;3413;47.680;9.166;2023-09-18T06:18:30;23.40;81.90
6752;DHT22;3413;47.680;9.166;2023-09-18T06:23:33;23.50;81.90
6752;DHT22;3413;47.680;9.166;2023-09-18T06:28:35;23.50;81.80
6752;DHT22;3413;47.680;9.166;2023-09-18T06:33:37;23.50;82.10
6752;DHT22;3413;47.680;9.166;2023-09-18T06:38:39;23.60;82.10
6752;DHT22;3413;47.680;9.166;2023-09-18T06:43:41;23.70;82.30
6752;DHT22;3413;47.680;9.166;2023-09-18T06:48:42;23.80;82.40
6752;DHT22;3413;47.680;9.166;2023-09-18T06:53:51;23.90;82.20
6752;DHT22;3413;47.680;9.166;2023-09-18T06:58:52;23.90;82.10
6752;DHT22;3413;47.680;9.166;2023-09-18T07:03:55;23.90;82.30
6752;DHT22;3413;47.680;9.166;2023-09-18T07:08:58;23.80;82.50
6752;DHT22;3413;47.680;9.166;2023-09-18T07:14:01;23.70;82.60
6752;DHT22;3413;47.680;9.166;2023-09-18T07:19:04;23.70;82.90
6752;DHT22;3413;47.680;9.166;2023-09-18T07:24:13;23.70;83.00
6752;DHT22;3413;47.680;9.166;2023-09-18T07:29:18;23.70;82.90
6752;DHT22;3413;47.680;9.166;2023-09-18T07:34:21;23.70;82.90
6752;DHT22;3413;47.680;9.166;2023-09-18T07:39:23;23.70;82.80
6752;DHT22;3413;47.680;9.166;2023-09-18T07:44:25;23.70;82.70
6752;DHT22;3413;47.680;9.166;2023-09-18T07:49:27;23.70;82.70
6752;DHT22;3413;47.680;9.166;2023-09-18T07:54:29;23.70;82.70
6752;DHT22;3413;47.680;9.166;2023-09-18T07:59:31;23.70;82.60
6752;DHT22;3413;47.680;9.166;2023-09-18T08:04:33;23.70;82.50
6752;DHT22;3413;47.680;9.166;2023-09-18T08:09:36;23.70;82.60
6752;DHT22;3413;47.680;9.166;2023-09-18T08:14:38;23.60;82.60
6752;DHT22;3413;47.680;9.166;2023-09-18T08:19:41;23.60;82.50
6752;DHT22;3413;47.680;9.166;2023-09-18T08:24:43;23.50;82.40
6752;DHT22;3413;47.680;9.166;2023-09-18T08:29:47;23.50;82.50
6752;DHT22;3413;47.680;9.166;2023-09-18T08:34:49;23.40;82.40
6752;DHT22;3413;47.680;9.166;2023-09-18T08:39:51;23.30;82.30
6752;DHT22;3413;47.680;9.166;2023-09-18T08:44:54;23.30;82.20
6752;DHT22;3413;47.680;9.166;2023-09-18T08:49:58;23.20;82.30
6752;DHT22;3413;47.680;9.166;2023-09-18T08:55:03;23.00;82.50
6752;DHT22;3413;47.680;9.166;2023-09-18T09:00:07;23.00;82.50
6752;DHT22;3413;47.680;9.166;2023-09-18T09:05:13;22.80;82.50
6752;DHT22;3413;47.680;9.166;2023-09-18T09:10:16;22.80;82.50
6752;DHT22;3413;47.680;9.166;2023-09-18T09:15:18;22.70;82.50
6752;DHT22;3413;47.680;9.166;2023-09-18T09:20:21;22.70;82.50
6752;DHT22;3413;47.680;9.166;2023-09-18T09:25:24;22.80;82.50
6752;DHT22;3413;47.680;9.166;2023-09-18T09:30:28;22.70;82.50
6752;DHT22;3413;47.680;9.166;2023-09-18T09:35:32;22.80;82.50
6752;DHT22;3413;47.680;9.166;2023-09-18T09:40:42;22.70;82.50
6752;DHT22;3413;47.680;9.166;2023-09-18T09:45:46;22.80;82.60
6752;DHT22;3413;47.680;9.166;2023-09-18T09:50:48;22.80;82.70
6752;DHT22;3413;47.680;9.166;2023-09-18T09:55:55;22.90;82.80
6752;DHT22;3413;47.680;9.166;2023-09-18T10:00:58;23.00;83.00
6752;DHT22;3413;47.680;9.166;2023-09-18T10:06:05;23.10;83.10
6752;DHT22;3413;47.680;9.166;2023-09-18T10:11:09;23.00;83.00
6752;DHT22;3413;47.680;9.166;2023-09-18T10:16:16;23.00;83.20
6752;DHT22;3413;47.680;9.166;2023-09-18T10:21:26;23.00;83.40
6752;DHT22;3413;47.680;9.166;2023-09-18T10:26:37;23.00;83.40
6752;DHT22;3413;47.680;9.166;2023-09-18T10:31:45;22.90;83.10
6752;DHT22;3413;47.680;9.166;2023-09-18T10:36:50;22.50;83.10
6752;DHT22;3413;47.680;9.166;2023-09-18T10:41:56;22.30;83.40
6752;DHT22;3413;47.680;9.166;2023-09-18T10:47:05;22.20;83.40
6752;DHT22;3413;47.680;9.166;2023-09-18T10:52:12;22.20;83.30
6752;DHT22;3413;47.680;9.166;2023-09-18T10:57:17;22.30;83.40
6752;DHT22;3413;47.680;9.166;2023-09-18T11:02:21;22.20;83.40
6752;DHT22;3413;47.680;9.166;2023-09-18T11:07:23;22.10;83.50
6752;DHT22;3413;47.680;9.166;2023-09-18T11:12:43;22.20;83.50
6752;DHT22;3413;47.680;9.166;2023-09-18T11:17:58;22.20;83.60
6752;DHT22;3413;47.680;9.166;2023-09-18T11:23:34;22.20;83.70
6752;DHT22;3413;47.680;9.166;2023-09-18T11:28:37;22.20;83.40
6752;DHT22;3413;47.680;9.166;2023-09-18T11:33:40;22.10;83.70
6752;DHT22;3413;47.680;9.166;2023-09-18T11:38:59;22.10;83.60
6752;DHT22;3413;47.680;9.166;2023-09-18T11:49:22;22.10;83.70
6752;DHT22;3413;47.680;9.166;2023-09-18T11:54:24;22.20;83.70
6752;DHT22;3413;47.680;9.166;2023-09-18T11:59:34;22.30;83.80
6752;DHT22;3413;47.680;9.166;2023-09-18T12:04:37;22.50;83.80
6752;DHT22;3413;47.680;9.166;2023-09-18T12:09:41;22.50;83.90
6752;DHT22;3413;47.680;9.166;2023-09-18T12:14:43;22.50;83.70
6752;DHT22;3413;47.680;9.166;2023-09-18T12:19:55;22.50;84.00
6752;DHT22;3413;47.680;9.166;2023-09-18T12:25:17;22.50;84.10
6752;DHT22;3413;47.680;9.166;2023-09-18T12:30:24;22.50;84.20
6752;DHT22;3413;47.680;9.166;2023-09-18T12:35:27;22.50;84.10
6752;DHT22;3413;47.680;9.166;2023-09-18T12:40:32;22.60;84.20
6752;DHT22;3413;47.680;9.166;2023-09-18T12:45:35;22.50;84.30
6752;DHT22;3413;47.680;9.166;2023-09-18T12:50:37;22.70;84.60
6752;DHT22;3413;47.680;9.166;2023-09-18T12:55:40;22.80;84.60
6752;DHT22;3413;47.680;9.166;2023-09-18T13:00:47;23.00;84.80
6752;DHT22;3413;47.680;9.166;2023-09-18T13:05:52;23.10;85.00
6752;DHT22;3413;47.680;9.166;2023-09-18T13:10:56;23.20;85.00
6752;DHT22;3413;47.680;9.166;2023-09-18T13:16:00;23.30;85.30
6752;DHT22;3413;47.680;9.166;2023-09-18T13:21:10;23.30;85.50
6752;DHT22;3413;47.680;9.166;2023-09-18T13:26:13;23.40;85.70
6752;DHT22;3413;47.680;9.166;2023-09-18T13:31:15;23.50;85.90
6752;DHT22;3413;47.680;9.166;2023-09-18T13:36:17;23.60;86.10
6752;DHT22;3413;47.680;9.166;2023-09-18T13:41:19;23.80;86.20
6752;DHT22;3413;47.680;9.166;2023-09-18T13:46:21;23.90;86.10
6752;DHT22;3413;47.680;9.166;2023-09-18T13:51:23;23.90;86.10
6752;DHT22;3413;47.680;9.166;2023-09-18T13:56:25;24.00;86.00
6752;DHT22;3413;47.680;9.166;2023-09-18T14:01:30;24.00;86.00
6752;DHT22;3413;47.680;9.166;2023-09-18T14:06:32;24.10;86.10
6752;DHT22;3413;47.680;9.166;2023-09-18T14:11:34;24.10;86.10
6752;DHT22;3413;47.680;9.166;2023-09-18T14:16:39;24.20;86.00
6752;DHT22;3413;47.680;9.166;2023-09-18T14:21:41;24.30;86.00
6752;DHT22;3413;47.680;9.166;2023-09-18T14:26:43;24.30;86.00
6752;DHT22;3413;47.680;9.166;2023-09-18T14:31:46;24.30;86.20
6752;DHT22;3413;47.680;9.166;2023-09-18T14:36:48;24.30;86.40
6752;DHT22;3413;47.680;9.166;2023-09-18T14:41:50;24.50;86.50
6752;DHT22;3413;47.680;9.166;2023-09-18T14:46:52;24.70;86.70
6752;DHT22;3413;47.680;9.166;2023-09-18T14:51:54;25.00;87.10
6752;DHT22;3413;47.680;9.166;2023-09-18T14:56:56;25.30;87.40
6752;DHT22;3413;47.680;9.166;2023-09-18T15:01:58;25.50;86.50
6752;DHT22;3413;47.680;9.166;2023-09-18T15:07:00;25.60;86.20
6752;DHT22;3413;47.680;9.166;2023-09-18T15:12:02;25.70;86.50
6752;DHT22;3413;47.680;9.166;2023-09-18T15:17:05;26.00;86.50
6752;DHT22;3413;47.680;9.166;2023-09-18T15:22:08;26.00;86.30
6752;DHT22;3413;47.680;9.166;2023-09-18T15:27:11;26.10;85.90
6752;DHT22;3413;47.680;9.166;2023-09-18T15:32:13;26.10;85.60
6752;DHT22;3413;47.680;9.166;2023-09-18T15:37:15;26.20;85.50
6752;DHT22;3413;47.680;9.166;2023-09-18T15:42:18;26.20;85.40
6752;DHT22;3413;47.680;9.166;2023-09-18T15:47:19;26.10;85.10
6752;DHT22;3413;47.680;9.166;2023-09-18T15:52:22;25.90;85.00
6752;DHT22;3413;47.680;9.166;2023-09-18T15:57:24;25.90;85.00
6752;DHT22;3413;47.680;9.166;2023-09-18T16:02:26;25.80;85.10
6752;DHT22;3413;47.680;9.166;2023-09-18T16:07:28;25.70;85.10
6752;DHT22;3413;47.680;9.166;2023-09-18T16:12:31;25.60;84.90
6752;DHT22;3413;47.680;9.166;2023-09-18T16:17:33;25.60;85.10
6752;DHT22;3413;47.680;9.166;2023-09-18T16:22:35;25.60;85.10
6752;DHT22;3413;47.680;9.166;2023-09-18T16:27:37;25.50;85.20
6752;DHT22;3413;47.680;9.166;2023-09-18T16:32:39;25.60;85.00
6752;DHT22;3413;47.680;9.166;2023-09-18T16:37:41;25.60;85.00
6752;DHT22;3413;47.680;9.166;2023-09-18T16:42:47;25.60;85.10
6752;DHT22;3413;47.680;9.166;2023-09-18T16:47:49;25.60;85.10
6752;DHT22;3413;47.680;9.166;2023-09-18T16:52:51;25.60;85.20
6752;DHT22;3413;47.680;9.166;2023-09-18T16:57:53;25.50;85.10
6752;DHT22;3413;47.680;9.166;2023-09-18T17:02:56;25.40;85.00
6752;DHT22;3413;47.680;9.166;2023-09-18T17:07:59;25.20;85.10
6752;DHT22;3413;47.680;9.166;2023-09-18T17:13:01;25.30;85.20
6752;DHT22;3413;47.680;9.166;2023-09-18T17:18:03;25.30;85.10
6752;DHT22;3413;47.680;9.166;2023-09-18T17:23:05;25.30;85.10
6752;DHT22;3413;47.680;9.166;2023-09-18T17:28:08;25.30;85.00
6752;DHT22;3413;47.680;9.166;2023-09-18T17:33:10;25.20;85.00
6752;DHT22;3413;47.680;9.166;2023-09-18T17:38:14;25.00;85.10
6752;DHT22;3413;47.680;9.166;2023-09-18T17:43:16;25.00;85.10
6752;DHT22;3413;47.680;9.166;2023-09-18T17:48:18;25.00;85.10
6752;DHT22;3413;47.680;9.166;2023-09-18T17:53:20;24.90;85.00
6752;DHT22;3413;47.680;9.166;2023-09-18T17:58:22;24.80;85.00
6752;DHT22;3413;47.680;9.166;2023-09-18T18:03:25;24.80;85.80
6752;DHT22;3413;47.680;9.166;2023-09-18T18:08:27;24.70;85.00
6752;DHT22;3413;47.680;9.166;2023-09-18T18:13:36;24.50;85.00
6752;DHT22;3413;47.680;9.166;2023-09-18T18:18:38;24.40;85.00
6752;DHT22;3413;47.680;9.166;2023-09-18T18:23:40;24.30;85.00
6752;DHT22;3413;47.680;9.166;2023-09-18T18:28:42;24.20;84.90
6752;DHT22;3413;47.680;9.166;2023-09-18T18:33:44;24.10;85.00
6752;DHT22;3413;47.680;9.166;2023-09-18T18:38:47;24.00;85.00
6752;DHT22;3413;47.680;9.166;2023-09-18T18:43:49;24.10;84.90
6752;DHT22;3413;47.680;9.166;2023-09-18T18:48:51;24.00;84.80
6752;DHT22;3413;47.680;9.166;2023-09-18T18:53:53;23.90;84.80
6752;DHT22;3413;47.680;9.166;2023-09-18T18:58:56;23.90;84.90
6752;DHT22;3413;47.680;9.166;2023-09-18T19:03:58;23.80;84.90
6752;DHT22;3413;47.680;9.166;2023-09-18T19:09:00;23.70;84.90
6752;DHT22;3413;47.680;9.166;2023-09-18T19:14:02;23.70;84.80
6752;DHT22;3413;47.680;9.166;2023-09-18T19:19:04;23.60;84.80
6752;DHT22;3413;47.680;9.166;2023-09-18T19:24:06;23.50;84.70
6752;DHT22;3413;47.680;9.166;2023-09-18T19:29:08;23.50;84.70
6752;DHT22;3413;47.680;9.166;2023-09-18T19:34:11;23.30;84.60
6752;DHT22;3413;47.680;9.166;2023-09-18T19:39:17;23.20;84.70
6752;DHT22;3413;47.680;9.166;2023-09-18T19:44:19;23.10;84.70
6752;DHT22;3413;47.680;9.166;2023-09-18T19:49:21;23.10;84.70
6752;DHT22;3413;47.680;9.166;2023-09-18T19:54:27;22.90;84.80
6752;DHT22;3413;47.680;9.166;2023-09-18T19:59:33;22.90;84.70
6752;DHT22;3413;47.680;9.166;2023-09-18T20:04:38;22.80;84.60
6752;DHT22;3413;47.680;9.166;2023-09-18T20:09:43;22.70;84.70
6752;DHT22;3413;47.680;9.166;2023-09-18T20:14:45;22.60;84.70
6752;DHT22;3413;47.680;9.166;2023-09-18T20:19:49;22.60;84.60
6752;DHT22;3413;47.680;9.166;2023-09-18T20:24:51;22.50;85.10
6752;DHT22;3413;47.680;9.166;2023-09-18T20:29:53;22.60;84.40
6752;DHT22;3413;47.680;9.166;2023-09-18T20:34:55;22.40;84.30
6752;DHT22;3413;47.680;9.166;2023-09-18T20:39:58;22.40;84.30
6752;DHT22;3413;47.680;9.166;2023-09-18T20:45:01;22.40;84.20
6752;DHT22;3413;47.680;9.166;2023-09-18T20:50:07;22.40;84.20
6752;DHT22;3413;47.680;9.166;2023-09-18T20:55:09;22.30;84.20
6752;DHT22;3413;47.680;9.166;2023-09-18T21:00:12;22.30;84.30
6752;DHT22;3413;47.680;9.166;2023-09-18T21:05:14;22.30;84.30
6752;DHT22;3413;47.680;9.166;2023-09-18T21:10:18;22.40;84.30
6752;DHT22;3413;47.680;9.166;2023-09-18T21:15:20;22.30;84.20
6752;DHT22;3413;47.680;9.166;2023-09-18T21:20:22;22.20;84.10
6752;DHT22;3413;47.680;9.166;2023-09-18T21:25:24;22.30;84.10
6752;DHT22;3413;47.680;9.166;2023-09-18T21:30:27;22.30;84.00
6752;DHT22;3413;47.680;9.166;2023-09-18T21:35:29;22.30;84.10
6752;DHT22;3413;47.680;9.166;2023-09-18T21:40:31;22.30;84.60
6752;DHT22;3413;47.680;9.166;2023-09-18T21:45:34;22.40;84.20
6752;DHT22;3413;47.680;9.166;2023-09-18T21:50:36;22.40;84.00
6752;DHT22;3413;47.680;9.166;2023-09-18T21:55:45;22.50;83.90
6752;DHT22;3413;47.680;9.166;2023-09-18T22:00:59;22.40;83.90
6752;DHT22;3413;47.680;9.166;2023-09-18T22:06:03;22.40;84.00
6752;DHT22;3413;47.680;9.166;2023-09-18T22:11:06;22.60;84.00
6752;DHT22;3413;47.680;9.166;2023-09-18T22:16:09;22.50;83.80
6752;DHT22;3413;47.680;9.166;2023-09-18T22:21:11;22.40;83.80
6752;DHT22;3413;47.680;9.166;2023-09-18T22:26:13;22.50;84.00
6752;DHT22;3413;47.680;9.166;2023-09-18T22:31:15;22.50;83.80
6752;DHT22;3413;47.680;9.166;2023-09-18T22:36:20;22.60;83.80
6752;DHT22;3413;47.680;9.166;2023-09-18T22:57:52;22.50;83.60
6752;DHT22;3413;47.680;9.166;2023-09-18T23:02:59;22.50;84.30
6752;DHT22;3413;47.680;9.166;2023-09-18T23:08:06;22.50;83.60
6752;DHT22;3413;47.680;9.166;2023-09-18T23:13:11;22.50;83.60
6752;DHT22;3413;47.680;9.166;2023-09-18T23:18:13;22.50;83.40
6752;DHT22;3413;47.680;9.166;2023-09-18T23:23:18;22.40;83.30
6752;DHT22;3413;47.680;9.166;2023-09-18T23:28:20;22.50;83.50
6752;DHT22;3413;47.680;9.166;2023-09-18T23:33:22;22.40;83.40
6752;DHT22;3413;47.680;9.166;2023-09-18T23:38:26;22.30;83.50
6752;DHT22;3413;47.680;9.166;2023-09-18T23:43:28;22.30;83.40
6752;DHT22;3413;47.680;9.166;2023-09-18T23:48:35;22.30;83.30
6752;DHT22;3413;47.680;9.166;2023-09-18T23:53:37;22.10;83.30
6752;DHT22;3413;47.680;9.166;2023-09-18T23:58:40;22.10;83.40
